createdAt,value
2023-01-07T00:01:18.174Z,16.94
2023-01-07T00:03:46.514Z,16.94
2023-01-07T00:06:28.344Z,16.94
2023-01-07T00:08:57.606Z,16.92
2023-01-07T00:11:30.849Z,16.92
2023-01-07T00:13:58.930Z,16.94
2023-01-07T00:16:28.292Z,16.92
2023-01-07T00:18:56.469Z,16.94
2023-01-07T00:21:24.720Z,16.91
2023-01-07T00:23:58.523Z,16.89
2023-01-07T00:26:27.953Z,16.95
2023-01-07T00:28:54.727Z,16.94
2023-01-07T00:31:25.283Z,16.94
2023-01-07T00:33:54.892Z,16.94
2023-01-07T00:36:23.527Z,16.93
2023-01-07T00:38:58.723Z,16.94
2023-01-07T00:41:25.477Z,16.91
2023-01-07T00:43:52.930Z,16.91
2023-01-07T00:46:19.705Z,16.88
2023-01-07T00:48:47.103Z,16.88
2023-01-07T00:51:15.186Z,16.84
2023-01-07T00:53:42.088Z,16.84
2023-01-07T00:56:13.043Z,16.81
2023-01-07T00:58:39.682Z,16.81
2023-01-07T01:01:06.627Z,16.80
2023-01-07T01:03:33.873Z,16.80
2023-01-07T01:06:08.823Z,16.76
2023-01-07T01:08:35.402Z,16.76
2023-01-07T01:11:07.272Z,16.76
2023-01-07T01:13:35.086Z,16.73
2023-01-07T01:16:02.566Z,16.73
2023-01-07T01:18:29.760Z,16.72
2023-01-07T01:20:56.358Z,16.72
2023-01-07T01:23:22.928Z,16.68
2023-01-07T01:25:49.978Z,16.70
2023-01-07T01:28:16.541Z,16.69
2023-01-07T01:30:44.094Z,16.69
2023-01-07T01:33:11.180Z,16.67
2023-01-07T01:35:41.400Z,16.65
2023-01-07T01:38:08.512Z,16.67
2023-01-07T01:40:35.080Z,16.66
2023-01-07T01:43:02.230Z,16.66
2023-01-07T01:45:29.857Z,16.66
2023-01-07T01:47:59.527Z,16.66
2023-01-07T01:50:39.158Z,16.65
2023-01-07T01:53:19.205Z,16.64
2023-01-07T01:55:51.403Z,16.65
2023-01-07T01:58:24.274Z,16.62
2023-01-07T02:00:51.302Z,16.64
2023-01-07T02:03:22.097Z,16.61
2023-01-07T02:05:49.582Z,16.60
2023-01-07T02:08:22.095Z,16.63
2023-01-07T02:10:57.668Z,16.62
2023-01-07T02:13:59.617Z,16.60
2023-01-07T02:16:52.633Z,16.60
2023-01-07T02:19:33.463Z,16.59
2023-01-07T02:22:23.770Z,16.59
2023-01-07T02:25:11.449Z,16.59
2023-01-07T02:27:59.339Z,16.58
2023-01-07T02:30:44.985Z,16.57
2023-01-07T02:33:26.968Z,16.56
2023-01-07T02:36:09.754Z,16.57
2023-01-07T02:38:53.326Z,16.56
2023-01-07T02:41:32.802Z,16.56
2023-01-07T02:44:14.151Z,16.56
2023-01-07T02:46:50.978Z,16.56
2023-01-07T02:49:18.959Z,16.57
2023-01-07T02:51:46.643Z,16.55
2023-01-07T02:54:22.550Z,16.57
2023-01-07T02:57:22.971Z,16.56
2023-01-07T02:59:55.639Z,16.57
2023-01-07T03:02:48.723Z,16.56
2023-01-07T03:05:15.483Z,16.55
2023-01-07T03:08:08.646Z,16.54
2023-01-07T03:10:56.532Z,16.54
2023-01-07T03:13:51.308Z,16.54
2023-01-07T03:16:24.654Z,16.52
2023-01-07T03:19:01.065Z,16.50
2023-01-07T03:21:30.371Z,16.52
2023-01-07T03:23:59.182Z,16.52
2023-01-07T03:26:33.156Z,16.50
2023-01-07T03:29:01.707Z,16.50
2023-01-07T03:31:30.180Z,16.50
2023-01-07T03:34:03.518Z,16.50
2023-01-07T03:36:49.250Z,16.51
2023-01-07T03:39:18.076Z,16.47
2023-01-07T03:42:03.177Z,16.46
2023-01-07T03:44:30.231Z,16.49
2023-01-07T03:46:57.275Z,16.49
2023-01-07T03:49:24.364Z,16.47
2023-01-07T03:51:52.707Z,16.47
2023-01-07T03:54:19.295Z,16.47
2023-01-07T03:56:46.300Z,16.44
2023-01-07T03:59:13.344Z,16.47
2023-01-07T04:01:40.013Z,16.45
2023-01-07T04:04:06.841Z,16.46
2023-01-07T04:06:33.716Z,16.46
2023-01-07T04:09:00.327Z,16.46
2023-01-07T04:11:26.946Z,16.45
2023-01-07T04:13:54.108Z,16.47
2023-01-07T04:16:20.676Z,16.46
2023-01-07T04:18:47.773Z,16.47
2023-01-07T04:21:14.894Z,16.47
2023-01-07T04:23:42.095Z,16.48
2023-01-07T04:26:08.683Z,16.46
2023-01-07T04:28:35.309Z,16.39
2023-01-07T04:31:02.111Z,16.46
2023-01-07T04:33:28.701Z,16.45
2023-01-07T04:35:57.753Z,16.45
2023-01-07T04:38:24.436Z,16.45
2023-01-07T04:40:51.048Z,16.45
2023-01-07T04:43:17.632Z,16.45
2023-01-07T04:45:44.198Z,16.44
2023-01-07T04:48:10.777Z,16.44
2023-01-07T04:50:37.845Z,16.45
2023-01-07T04:53:04.847Z,16.44
2023-01-07T04:55:31.935Z,16.44
2023-01-07T04:57:59.023Z,16.43
2023-01-07T05:00:26.357Z,16.43
2023-01-07T05:02:52.911Z,16.44
2023-01-07T05:05:19.912Z,16.43
2023-01-07T05:07:46.500Z,16.43
2023-01-07T05:10:13.579Z,16.41
2023-01-07T05:12:41.112Z,16.44
2023-01-07T05:15:08.136Z,16.42
2023-01-07T05:17:35.188Z,16.43
2023-01-07T05:20:01.951Z,16.42
2023-01-07T05:22:29.002Z,16.42
2023-01-07T05:24:56.047Z,16.40
2023-01-07T05:27:23.068Z,16.41
2023-01-07T05:29:49.564Z,16.41
2023-01-07T05:32:16.115Z,16.39
2023-01-07T05:34:42.712Z,16.39
2023-01-07T05:37:09.751Z,16.38
2023-01-07T05:39:37.305Z,16.39
2023-01-07T05:42:04.441Z,16.38
2023-01-07T05:44:31.472Z,16.38
2023-01-07T05:46:58.085Z,16.37
2023-01-07T05:49:25.166Z,16.37
2023-01-07T05:51:52.196Z,16.36
2023-01-07T05:54:19.259Z,16.36
2023-01-07T05:56:46.325Z,16.34
2023-01-07T05:59:12.879Z,16.34
2023-01-07T06:01:40.449Z,16.34
2023-01-07T06:04:07.662Z,16.33
2023-01-07T06:06:34.751Z,16.32
2023-01-07T06:09:01.340Z,16.33
2023-01-07T06:11:28.396Z,16.32
2023-01-07T06:13:55.441Z,16.30
2023-01-07T06:16:22.477Z,16.26
2023-01-07T06:18:49.952Z,16.32
2023-01-07T06:21:18.244Z,16.31
2023-01-07T06:23:45.347Z,16.30
2023-01-07T06:26:11.856Z,16.31
2023-01-07T06:28:38.424Z,16.28
2023-01-07T06:31:06.336Z,16.29
2023-01-07T06:33:33.631Z,16.28
2023-01-07T06:36:00.820Z,16.29
2023-01-07T06:38:27.352Z,16.29
2023-01-07T06:40:53.963Z,16.28
2023-01-07T06:43:21.513Z,16.29
2023-01-07T06:45:48.335Z,16.28
2023-01-07T06:48:15.482Z,16.28
2023-01-07T06:50:42.264Z,16.28
2023-01-07T06:53:09.331Z,16.28
2023-01-07T06:55:36.445Z,16.28
2023-01-07T06:58:03.483Z,16.27
2023-01-07T07:00:30.373Z,16.28
2023-01-07T07:02:57.240Z,16.26
2023-01-07T07:05:24.387Z,16.26
2023-01-07T07:07:50.942Z,16.26
2023-01-07T07:10:17.772Z,16.27
2023-01-07T07:12:44.324Z,16.28
2023-01-07T07:15:11.935Z,16.27
2023-01-07T07:17:38.550Z,16.25
2023-01-07T07:20:05.736Z,16.27
2023-01-07T07:22:32.321Z,16.26
2023-01-07T07:24:58.846Z,16.26
2023-01-07T07:27:25.430Z,16.29
2023-01-07T07:29:52.001Z,16.30
2023-01-07T07:32:19.181Z,16.32
2023-01-07T07:34:45.727Z,16.32
2023-01-07T07:37:13.415Z,16.34
2023-01-07T07:39:39.944Z,16.35
2023-01-07T07:42:07.053Z,16.36
2023-01-07T07:44:33.588Z,16.33
2023-01-07T07:47:00.150Z,16.39
2023-01-07T07:49:26.797Z,16.38
2023-01-07T07:51:53.475Z,16.39
2023-01-07T07:54:21.775Z,16.38
2023-01-07T07:56:49.651Z,16.40
2023-01-07T07:59:16.174Z,16.40
2023-01-07T08:01:42.901Z,16.41
2023-01-07T08:04:09.943Z,16.41
2023-01-07T08:06:37.123Z,16.43
2023-01-07T08:09:03.722Z,16.43
2023-01-07T08:11:30.362Z,16.46
2023-01-07T08:13:56.881Z,16.46
2023-01-07T08:16:24.024Z,16.48
2023-01-07T08:18:50.629Z,16.47
2023-01-07T08:21:17.400Z,16.48
2023-01-07T08:23:43.998Z,16.50
2023-01-07T08:26:10.642Z,16.50
2023-01-07T08:28:38.195Z,16.51
2023-01-07T08:31:06.859Z,16.51
2023-01-07T08:33:37.711Z,16.52
2023-01-07T08:36:09.377Z,16.54
2023-01-07T08:38:38.569Z,16.55
2023-01-07T08:41:05.840Z,16.54
2023-01-07T08:43:33.355Z,16.56
2023-01-07T08:45:59.945Z,16.57
2023-01-07T08:48:27.595Z,16.58
2023-01-07T08:50:54.874Z,16.60
2023-01-07T08:53:23.016Z,16.58
2023-01-07T08:55:50.145Z,16.60
2023-01-07T08:58:16.719Z,16.61
2023-01-07T09:00:43.576Z,16.62
2023-01-07T09:03:10.271Z,16.62
2023-01-07T09:05:36.840Z,16.63
2023-01-07T09:08:04.147Z,16.62
2023-01-07T09:10:31.063Z,16.61
2023-01-07T09:12:57.694Z,16.64
2023-01-07T09:15:24.344Z,16.64
2023-01-07T09:17:50.956Z,16.65
2023-01-07T09:20:17.611Z,16.64
2023-01-07T09:22:44.478Z,16.64
2023-01-07T09:25:11.251Z,16.66
2023-01-07T09:27:38.965Z,16.66
2023-01-07T09:30:08.036Z,16.69
2023-01-07T09:32:34.623Z,16.70
2023-01-07T09:35:01.230Z,16.72
2023-01-07T09:37:27.768Z,16.71
2023-01-07T09:39:54.832Z,16.73
2023-01-07T09:42:34.142Z,16.74
2023-01-07T09:45:16.720Z,16.74
2023-01-07T09:47:48.460Z,16.75
2023-01-07T09:50:47.143Z,16.76
2023-01-07T09:53:21.117Z,16.76
2023-01-07T09:56:11.932Z,16.76
2023-01-07T09:58:40.518Z,16.75
2023-01-07T10:01:21.267Z,16.77
2023-01-07T10:04:02.206Z,16.77
2023-01-07T10:06:43.819Z,16.77
2023-01-07T10:09:29.453Z,16.76
2023-01-07T10:12:12.235Z,16.77
2023-01-07T10:14:44.592Z,16.77
2023-01-07T10:17:33.954Z,16.74
2023-01-07T10:20:03.430Z,16.72
2023-01-07T10:22:39.898Z,16.70
2023-01-07T10:25:18.523Z,16.66
2023-01-07T10:27:46.392Z,16.63
2023-01-07T10:30:21.810Z,16.62
2023-01-07T10:32:53.065Z,16.60
2023-01-07T10:35:22.543Z,16.57
2023-01-07T10:37:49.794Z,16.54
2023-01-07T10:40:25.306Z,16.53
2023-01-07T10:43:17.343Z,16.51
2023-01-07T10:46:11.346Z,16.50
2023-01-07T10:48:54.441Z,16.49
2023-01-07T10:51:55.599Z,16.48
2023-01-07T10:55:12.994Z,16.49
2023-01-07T10:57:39.556Z,16.48
2023-01-07T11:00:11.552Z,16.50
2023-01-07T11:02:42.261Z,16.50
2023-01-07T11:05:14.102Z,16.53
2023-01-07T11:07:45.948Z,16.55
2023-01-07T11:10:24.895Z,16.54
2023-01-07T11:12:56.372Z,16.56
2023-01-07T11:15:37.038Z,16.56
2023-01-07T11:18:20.167Z,16.56
2023-01-07T11:20:51.178Z,16.58
2023-01-07T11:23:36.369Z,16.58
2023-01-07T11:26:25.266Z,16.60
2023-01-07T11:28:58.589Z,16.59
2023-01-07T11:31:48.635Z,16.59
2023-01-07T11:34:34.603Z,16.59
2023-01-07T11:37:01.886Z,16.60
2023-01-07T11:39:31.965Z,16.59
2023-01-07T11:42:00.816Z,16.60
2023-01-07T11:44:27.861Z,16.60
2023-01-07T11:46:55.817Z,16.63
2023-01-07T11:49:29.070Z,16.65
2023-01-07T11:51:57.259Z,16.63
2023-01-07T11:54:27.183Z,16.66
2023-01-07T11:57:10.245Z,16.65
2023-01-07T11:59:36.818Z,16.64
2023-01-07T12:02:03.470Z,16.65
2023-01-07T12:04:36.987Z,16.68
2023-01-07T12:07:13.201Z,16.68
2023-01-07T12:09:42.160Z,16.70
2023-01-07T12:12:39.329Z,16.70
2023-01-07T12:15:21.164Z,16.71
2023-01-07T12:17:55.075Z,16.73
2023-01-07T12:20:49.582Z,16.75
2023-01-07T12:23:51.254Z,16.75
2023-01-07T12:26:51.850Z,16.75
2023-01-07T12:29:25.756Z,16.77
2023-01-07T12:32:35.308Z,16.76
2023-01-07T12:35:28.322Z,16.76
2023-01-07T12:38:25.280Z,16.76
2023-01-07T12:40:57.457Z,16.76
2023-01-07T12:43:48.052Z,16.77
2023-01-07T12:46:18.328Z,16.78
2023-01-07T12:48:53.259Z,16.78
2023-01-07T12:51:31.716Z,16.78
2023-01-07T12:54:14.659Z,16.76
2023-01-07T12:56:50.591Z,16.78
2023-01-07T12:59:47.224Z,16.79
2023-01-07T13:02:32.926Z,16.81
2023-01-07T13:05:09.912Z,16.84
2023-01-07T13:07:39.307Z,16.88
2023-01-07T13:10:13.972Z,16.91
2023-01-07T13:12:48.389Z,16.94
2023-01-07T13:15:27.111Z,16.97
2023-01-07T13:17:59.317Z,16.98
2023-01-07T13:20:39.357Z,17.02
2023-01-07T13:23:06.399Z,17.04
2023-01-07T13:25:51.605Z,17.07
2023-01-07T13:28:40.150Z,17.07
2023-01-07T13:31:29.212Z,17.09
2023-01-07T13:34:07.942Z,17.09
2023-01-07T13:37:11.067Z,17.08
2023-01-07T13:39:58.614Z,17.06
2023-01-07T13:42:37.407Z,17.07
2023-01-07T13:45:10.233Z,17.07
2023-01-07T13:47:43.235Z,17.07
2023-01-07T13:50:20.615Z,17.06
2023-01-07T13:53:00.580Z,17.07
2023-01-07T13:55:36.359Z,17.05
2023-01-07T13:58:03.161Z,17.04
2023-01-07T14:00:39.792Z,17.03
2023-01-07T14:03:34.143Z,17.04
2023-01-07T14:06:19.328Z,17.04
2023-01-07T14:08:52.943Z,17.06
2023-01-07T14:11:41.970Z,17.06
2023-01-07T14:14:22.623Z,17.09
2023-01-07T14:17:15.522Z,17.11
2023-01-07T14:20:03.777Z,17.11
2023-01-07T14:22:54.605Z,17.12
2023-01-07T14:25:24.661Z,17.13
2023-01-07T14:28:22.234Z,17.12
2023-01-07T14:30:50.575Z,17.11
2023-01-07T14:33:32.863Z,17.10
2023-01-07T14:36:08.585Z,17.09
2023-01-07T14:38:35.087Z,17.09
2023-01-07T14:41:09.522Z,17.09
2023-01-07T14:43:48.536Z,17.10
2023-01-07T14:46:24.181Z,17.09
2023-01-07T14:49:01.812Z,17.08
2023-01-07T14:51:49.936Z,17.07
2023-01-07T14:54:16.440Z,17.07
2023-01-07T14:57:25.740Z,17.06
2023-01-07T15:00:13.269Z,17.06
2023-01-07T15:03:17.297Z,17.06
2023-01-07T15:06:21.465Z,17.04
2023-01-07T15:09:11.820Z,17.03
2023-01-07T15:12:01.163Z,17.03
2023-01-07T15:14:51.854Z,17.04
2023-01-07T15:17:19.006Z,17.03
2023-01-07T15:19:45.772Z,17.03
2023-01-07T15:22:56.024Z,17.03
2023-01-07T15:25:53.698Z,17.02
2023-01-07T15:28:37.947Z,17.02
2023-01-07T15:31:20.568Z,17.02
2023-01-07T15:34:12.994Z,17.02
2023-01-07T15:36:43.380Z,17.02
2023-01-07T15:39:19.637Z,17.01
2023-01-07T15:41:47.204Z,17.02
2023-01-07T15:44:17.683Z,17.02
2023-01-07T15:46:44.909Z,17.02
2023-01-07T15:49:11.632Z,17.01
2023-01-07T15:51:44.180Z,17.03
2023-01-07T15:54:34.987Z,17.02
2023-01-07T15:57:06.857Z,17.01
2023-01-07T15:59:37.772Z,17.01
2023-01-07T16:02:27.948Z,17.02
2023-01-07T16:05:01.111Z,17.02
2023-01-07T16:07:36.827Z,17.02
2023-01-07T16:10:04.151Z,17.01
2023-01-07T16:12:36.730Z,17.01
2023-01-07T16:15:23.234Z,17.01
2023-01-07T16:17:54.292Z,17.01
2023-01-07T16:20:25.143Z,17.00
2023-01-07T16:23:00.596Z,17.01
2023-01-07T16:25:35.889Z,17.00
2023-01-07T16:28:03.837Z,17.00
2023-01-07T16:30:30.807Z,17.00
2023-01-07T16:32:58.391Z,17.00
2023-01-07T16:35:34.178Z,16.99
2023-01-07T16:38:03.615Z,17.00
2023-01-07T16:40:38.379Z,17.00
2023-01-07T16:43:05.947Z,17.00
2023-01-07T16:45:42.055Z,17.00
2023-01-07T16:48:19.441Z,17.01
2023-01-07T16:50:46.495Z,17.00
2023-01-07T16:53:23.543Z,16.99
2023-01-07T16:55:54.044Z,17.00
2023-01-07T16:58:41.183Z,16.99
2023-01-07T17:01:09.692Z,16.98
2023-01-07T17:03:53.842Z,16.98
2023-01-07T17:06:25.985Z,16.97
2023-01-07T17:08:55.596Z,16.98
2023-01-07T17:11:39.045Z,16.98
2023-01-07T17:14:34.401Z,16.97
2023-01-07T17:17:03.946Z,16.97
2023-01-07T17:19:41.916Z,16.97
2023-01-07T17:22:33.054Z,16.96
2023-01-07T17:25:07.127Z,16.95
2023-01-07T17:27:35.442Z,16.95
2023-01-07T17:30:04.140Z,16.95
2023-01-07T17:32:32.682Z,16.95
2023-01-07T17:35:05.529Z,16.94
2023-01-07T17:37:32.811Z,16.93
2023-01-07T17:39:59.499Z,16.94
2023-01-07T17:42:51.137Z,16.93
2023-01-07T17:45:19.952Z,16.93
2023-01-07T17:47:49.498Z,16.92
2023-01-07T17:50:18.289Z,16.93
2023-01-07T17:52:47.920Z,16.90
2023-01-07T17:55:16.664Z,16.91
2023-01-07T17:57:43.655Z,16.91
2023-01-07T18:00:20.529Z,16.91
2023-01-07T18:02:48.602Z,16.91
2023-01-07T18:05:20.612Z,16.90
2023-01-07T18:07:47.407Z,16.90
2023-01-07T18:10:19.774Z,16.90
2023-01-07T18:12:46.877Z,16.91
2023-01-07T18:15:27.293Z,16.90
2023-01-07T18:17:53.911Z,16.90
2023-01-07T18:20:22.389Z,16.90
2023-01-07T18:22:49.593Z,16.87
2023-01-07T18:25:22.248Z,16.88
2023-01-07T18:27:52.600Z,16.88
2023-01-07T18:30:21.161Z,16.89
2023-01-07T18:32:48.399Z,16.86
2023-01-07T18:35:15.176Z,16.89
2023-01-07T18:37:41.889Z,16.90
2023-01-07T18:40:09.547Z,16.88
2023-01-07T18:42:37.081Z,16.90
2023-01-07T18:45:05.592Z,16.91
2023-01-07T18:47:33.075Z,16.90
2023-01-07T18:50:00.130Z,16.90
2023-01-07T18:52:27.980Z,16.90
2023-01-07T18:54:54.558Z,16.90
2023-01-07T18:57:21.136Z,16.92
2023-01-07T18:59:47.788Z,16.92
2023-01-07T19:02:17.024Z,16.89
2023-01-07T19:04:43.677Z,16.91
2023-01-07T19:07:10.384Z,16.93
2023-01-07T19:09:37.242Z,16.92
2023-01-07T19:12:05.220Z,16.92
2023-01-07T19:14:32.571Z,16.91
2023-01-07T19:16:59.656Z,16.90
2023-01-07T19:19:32.040Z,16.91
2023-01-07T19:22:01.325Z,16.91
2023-01-07T19:24:27.911Z,16.90
2023-01-07T19:26:54.944Z,16.89
2023-01-07T19:29:21.482Z,16.90
2023-01-07T19:31:48.197Z,16.89
2023-01-07T19:34:16.012Z,16.89
2023-01-07T19:36:46.682Z,16.90
2023-01-07T19:39:18.541Z,16.89
2023-01-07T19:41:45.330Z,16.88
2023-01-07T19:44:12.260Z,16.88
2023-01-07T19:46:40.324Z,16.88
2023-01-07T19:49:08.341Z,16.87
2023-01-07T19:51:36.516Z,16.88
2023-01-07T19:54:04.892Z,16.89
2023-01-07T19:56:31.855Z,16.88
2023-01-07T19:58:59.824Z,16.88
2023-01-07T20:01:28.555Z,16.87
2023-01-07T20:03:57.594Z,16.87
2023-01-07T20:06:27.427Z,16.87
2023-01-07T20:08:56.085Z,16.85
2023-01-07T20:11:23.466Z,16.85
2023-01-07T20:13:51.257Z,16.86
2023-01-07T20:16:22.520Z,16.86
2023-01-07T20:18:52.018Z,16.84
2023-01-07T20:21:21.194Z,16.85
2023-01-07T20:23:48.122Z,16.85
2023-01-07T20:26:18.127Z,16.85
2023-01-07T20:28:45.632Z,16.85
2023-01-07T20:31:14.589Z,16.84
2023-01-07T20:33:42.694Z,16.85
2023-01-07T20:36:12.636Z,16.85
2023-01-07T20:38:40.280Z,16.85
2023-01-07T20:41:08.190Z,16.84
2023-01-07T20:43:36.869Z,16.83
2023-01-07T20:46:05.902Z,16.84
2023-01-07T20:48:33.056Z,16.84
2023-01-07T20:51:00.387Z,16.83
2023-01-07T20:53:28.496Z,16.84
2023-01-07T20:55:59.710Z,16.83
2023-01-07T20:58:27.048Z,16.82
2023-01-07T21:00:53.974Z,16.84
2023-01-07T21:03:21.066Z,16.83
2023-01-07T21:05:47.823Z,16.81
2023-01-07T21:08:14.356Z,16.83
2023-01-07T21:10:41.375Z,16.83
2023-01-07T21:13:07.925Z,16.82
2023-01-07T21:15:36.357Z,16.82
2023-01-07T21:18:03.021Z,16.83
2023-01-07T21:20:29.624Z,16.82
2023-01-07T21:22:56.621Z,16.83
2023-01-07T21:25:23.748Z,16.83
2023-01-07T21:27:50.903Z,16.80
2023-01-07T21:30:18.140Z,16.82
2023-01-07T21:32:45.001Z,16.82
2023-01-07T21:35:12.308Z,16.81
2023-01-07T21:37:39.685Z,16.82
2023-01-07T21:40:07.195Z,16.82
2023-01-07T21:42:37.087Z,16.83
2023-01-07T21:45:05.077Z,16.82
2023-01-07T21:47:32.376Z,16.83
2023-01-07T21:49:59.482Z,16.83
2023-01-07T21:52:26.179Z,16.84
2023-01-07T21:54:52.735Z,16.84
2023-01-07T21:57:19.719Z,16.83
2023-01-07T21:59:46.810Z,16.83
2023-01-07T22:02:13.851Z,16.81
2023-01-07T22:04:43.272Z,16.84
2023-01-07T22:07:14.020Z,16.84
2023-01-07T22:09:40.940Z,16.84
2023-01-07T22:12:08.735Z,16.83
2023-01-07T22:14:35.385Z,16.83
2023-01-07T22:17:01.928Z,16.84
2023-01-07T22:19:29.119Z,16.78
2023-01-07T22:21:55.728Z,16.84
2023-01-07T22:24:22.239Z,16.83
2023-01-07T22:26:49.321Z,16.84
2023-01-07T22:29:16.480Z,16.84
2023-01-07T22:31:43.557Z,16.83
2023-01-07T22:34:10.833Z,16.83
2023-01-07T22:36:41.796Z,16.83
2023-01-07T22:39:24.209Z,16.83
2023-01-07T22:41:56.126Z,16.83
2023-01-07T22:44:34.948Z,16.82
2023-01-07T22:47:02.648Z,16.78
2023-01-07T22:49:31.400Z,16.82
2023-01-07T22:51:58.343Z,16.81
2023-01-07T22:54:26.620Z,16.82
2023-01-07T22:56:54.247Z,16.81
2023-01-07T22:59:20.784Z,16.81
2023-01-07T23:01:47.331Z,16.81
2023-01-07T23:04:13.953Z,16.80
2023-01-07T23:06:41.049Z,16.81
2023-01-07T23:09:07.948Z,16.79
2023-01-07T23:11:57.015Z,16.78
2023-01-07T23:14:23.986Z,16.74
2023-01-07T23:16:51.693Z,16.72
2023-01-07T23:19:19.269Z,16.67
2023-01-07T23:21:47.712Z,16.66
2023-01-07T23:24:15.335Z,16.64
2023-01-07T23:26:42.693Z,16.63
2023-01-07T23:29:09.682Z,16.62
2023-01-07T23:31:37.530Z,16.58
2023-01-07T23:34:05.743Z,16.58
2023-01-07T23:36:32.736Z,16.58
2023-01-07T23:38:59.300Z,16.56
2023-01-07T23:41:25.936Z,16.55
2023-01-07T23:43:53.035Z,16.54
2023-01-07T23:46:19.614Z,16.53
2023-01-07T23:48:47.116Z,16.53
2023-01-07T23:51:19.247Z,16.50
2023-01-07T23:53:46.887Z,16.49
2023-01-07T23:56:14.776Z,16.48
2023-01-07T23:58:41.323Z,16.46
